MCF1BS LHSK-LHSA
Flight info
| Callsign | MCF1BS |
|---|---|
| Flight time | 0h 8m |
| Altitude | 4000 |
| Route | LHSA |
| Aircraft | DA62/L-SDFGRY/C |
Departure
| Time | 2026-04-12 09:29 |
|---|---|
| Airport | Siófok-Kiliti Airfield (LHSK) |
Arrival
| Time | 2026-04-12 09:37 |
|---|---|
| Airport | Szentkirályszabadja Airfield (LHSA) |
| Time | Latitude | Longitude | Altitude | Speed | Heading |
|---|---|---|---|---|---|
| 2026-04-12 09:22 | 46.86271 | 18.08871 | 425 ft | 0 kts | 132° |
| 2026-04-12 09:26 | 46.86288 | 18.08883 | 428 ft | 11 kts | 332° |
| 2026-04-12 09:27 | 46.86359 | 18.08858 | 428 ft | 11 kts | 48° |
| 2026-04-12 09:27 | 46.86386 | 18.08934 | 428 ft | 8 kts | 66° |
| 2026-04-12 09:27 | 46.86397 | 18.08964 | 427 ft | 7 kts | 62° |
| 2026-04-12 09:27 | 46.86398 | 18.08991 | 429 ft | 0 kts | 147° |
| 2026-04-12 09:28 | 46.86396 | 18.08992 | 429 ft | 5 kts | 146° |
| 2026-04-12 09:28 | 46.86171 | 18.09170 | 421 ft | 68 kts | 154° |
| 2026-04-12 09:29 | 46.85676 | 18.09527 | 721 ft | 74 kts | 146° |
| 2026-04-12 09:29 | 46.85230 | 18.09833 | 1060 ft | 79 kts | 158° |
| 2026-04-12 09:29 | 46.85081 | 18.10506 | 1223 ft | 110 kts | 54° |
| 2026-04-12 09:29 | 46.85869 | 18.10751 | 1562 ft | 128 kts | 336° |
| 2026-04-12 09:30 | 46.86630 | 18.10034 | 1949 ft | 137 kts | 335° |
| 2026-04-12 09:30 | 46.87586 | 18.09378 | 1991 ft | 163 kts | 335° |
| 2026-04-12 09:30 | 46.88674 | 18.08600 | 2046 ft | 178 kts | 334° |
| 2026-04-12 09:30 | 46.89762 | 18.07836 | 2012 ft | 170 kts | 338° |
| 2026-04-12 09:31 | 46.90859 | 18.07267 | 1821 ft | 163 kts | 343° |
| 2026-04-12 09:31 | 46.91896 | 18.06725 | 1696 ft | 152 kts | 339° |
| 2026-04-12 09:31 | 46.92840 | 18.06123 | 1490 ft | 144 kts | 338° |
| 2026-04-12 09:31 | 46.93744 | 18.05592 | 1274 ft | 140 kts | 341° |
| 2026-04-12 09:32 | 46.94630 | 18.05017 | 1118 ft | 142 kts | 338° |
| 2026-04-12 09:32 | 46.95548 | 18.04443 | 1003 ft | 144 kts | 339° |
| 2026-04-12 09:32 | 46.96512 | 18.03859 | 909 ft | 155 kts | 339° |
| 2026-04-12 09:32 | 46.97505 | 18.03217 | 950 ft | 158 kts | 339° |
| 2026-04-12 09:33 | 46.98431 | 18.02615 | 1364 ft | 139 kts | 337° |
| 2026-04-12 09:33 | 46.99298 | 18.02064 | 1619 ft | 138 kts | 339° |
| 2026-04-12 09:33 | 47.00203 | 18.01466 | 1646 ft | 151 kts | 336° |
| 2026-04-12 09:33 | 47.01159 | 18.00773 | 1722 ft | 161 kts | 334° |
| 2026-04-12 09:34 | 47.02173 | 18.00010 | 1925 ft | 167 kts | 335° |
| 2026-04-12 09:34 | 47.03237 | 17.99342 | 2101 ft | 167 kts | 338° |
| 2026-04-12 09:34 | 47.04336 | 17.98690 | 2159 ft | 173 kts | 337° |
| 2026-04-12 09:34 | 47.05488 | 17.98077 | 1888 ft | 169 kts | 341° |
| 2026-04-12 09:35 | 47.06500 | 17.97702 | 1639 ft | 134 kts | 2° |
| 2026-04-12 09:35 | 47.07407 | 17.97780 | 1589 ft | 129 kts | 7° |
| 2026-04-12 09:35 | 47.08282 | 17.97798 | 1582 ft | 129 kts | 360° |
| 2026-04-12 09:35 | 47.09149 | 17.97762 | 1666 ft | 125 kts | 2° |
| 2026-04-12 09:36 | 47.10031 | 17.97641 | 1681 ft | 129 kts | 352° |
| 2026-04-12 09:36 | 47.10568 | 17.96911 | 1675 ft | 103 kts | 258° |
| 2026-04-12 09:36 | 47.10123 | 17.96206 | 1395 ft | 101 kts | 201° |
| 2026-04-12 09:36 | 47.09474 | 17.95899 | 1187 ft | 90 kts | 167° |
| 2026-04-12 09:37 | 47.08885 | 17.96232 | 1007 ft | 98 kts | 153° |
| 2026-04-12 09:37 | 47.08251 | 17.96588 | 931 ft | 88 kts | 156° |
| 2026-04-12 09:37 | 47.07778 | 17.96848 | 926 ft | 59 kts | 160° |
| 2026-04-12 09:37 | 47.07478 | 17.97020 | 922 ft | 31 kts | 146° |
| 2026-04-12 09:38 | 47.07436 | 17.97144 | 922 ft | 16 kts | 69° |
| 2026-04-12 09:38 | 47.07501 | 17.97230 | 925 ft | 19 kts | 346° |
| 2026-04-12 09:38 | 47.07655 | 17.97143 | 927 ft | 25 kts | 336° |
| 2026-04-12 09:38 | 47.07776 | 17.97111 | 925 ft | 0 kts | 355° |